Eynsford, United Kingdom
Current Conditions -  °F | °C
As of 8:20 AM on Saturday 20 Dec 2014 (Local Time) from EGLC Reporting Station
Few Clouds Few Clouds  
Wind Chill: 38°   Ceiling: Unl
Heat Index: 45°   Visibility: 6mi
Dew Point: 37°   Wind: 15mph
Humidity: 76%   Direction: 260°W
Pressure: 30.24"   Gusts: NA
Location:  51.37°N, 0.21°E
Report Text: EGLC 200820Z 26013KT 9999 FEW028 07/03 Q1024
Loading
Personal Weather Stations






























Interactive Weather Map New forecast layout! Learn more

10-Day Weather Forecast

Advertisements
Track Severe Weather on mobile